sensor_id;sensor_type;location;lat;lon;timestamp;temperature;humidity
3876;DHT22;1953;51.222;6.624;2023-06-19T00:02:43;23.90;1.00
3876;DHT22;1953;51.222;6.624;2023-06-19T00:07:25;23.90;1.00
3876;DHT22;1953;51.222;6.624;2023-06-19T00:13:32;23.80;1.00
3876;DHT22;1953;51.222;6.624;2023-06-19T00:18:15;23.60;1.00
3876;DHT22;1953;51.222;6.624;2023-06-19T00:22:59;23.60;1.00
3876;DHT22;1953;51.222;6.624;2023-06-19T00:27:41;23.60;1.00
3876;DHT22;1953;51.222;6.624;2023-06-19T00:32:25;23.50;1.00
3876;DHT22;1953;51.222;6.624;2023-06-19T00:37:08;23.50;1.00
3876;DHT22;1953;51.222;6.624;2023-06-19T00:41:51;23.40;1.00
3876;DHT22;1953;51.222;6.624;2023-06-19T00:46:36;23.40;1.00
3876;DHT22;1953;51.222;6.624;2023-06-19T00:51:21;23.30;1.00
3876;DHT22;1953;51.222;6.624;2023-06-19T00:56:04;23.30;1.00
3876;DHT22;1953;51.222;6.624;2023-06-19T01:00:47;23.30;1.00
3876;DHT22;1953;51.222;6.624;2023-06-19T01:05:30;23.30;1.00
3876;DHT22;1953;51.222;6.624;2023-06-19T01:10:18;23.30;1.00
3876;DHT22;1953;51.222;6.624;2023-06-19T01:15:04;23.20;1.00
3876;DHT22;1953;51.222;6.624;2023-06-19T01:19:47;23.10;1.00
3876;DHT22;1953;51.222;6.624;2023-06-19T01:24:31;23.10;1.00
3876;DHT22;1953;51.222;6.624;2023-06-19T01:29:15;22.90;1.00
3876;DHT22;1953;51.222;6.624;2023-06-19T01:34:00;22.90;1.00
3876;DHT22;1953;51.222;6.624;2023-06-19T01:38:44;22.90;1.00
3876;DHT22;1953;51.222;6.624;2023-06-19T01:43:30;22.90;1.00
3876;DHT22;1953;51.222;6.624;2023-06-19T01:48:14;22.70;1.00
3876;DHT22;1953;51.222;6.624;2023-06-19T01:52:56;22.80;1.00
3876;DHT22;1953;51.222;6.624;2023-06-19T01:57:39;22.80;1.00
3876;DHT22;1953;51.222;6.624;2023-06-19T02:02:23;22.70;1.00
3876;DHT22;1953;51.222;6.624;2023-06-19T02:07:06;23.60;1.00
3876;DHT22;1953;51.222;6.624;2023-06-19T02:11:48;22.70;1.00
3876;DHT22;1953;51.222;6.624;2023-06-19T02:16:31;22.70;1.00
3876;DHT22;1953;51.222;6.624;2023-06-19T02:21:15;22.80;1.00
3876;DHT22;1953;51.222;6.624;2023-06-19T02:25:57;22.80;1.00
3876;DHT22;1953;51.222;6.624;2023-06-19T02:30:40;22.70;1.00
3876;DHT22;1953;51.222;6.624;2023-06-19T02:35:22;22.80;1.00
3876;DHT22;1953;51.222;6.624;2023-06-19T02:40:08;22.80;1.00
3876;DHT22;1953;51.222;6.624;2023-06-19T02:44:51;22.90;1.00
3876;DHT22;1953;51.222;6.624;2023-06-19T02:49:34;22.90;1.00
3876;DHT22;1953;51.222;6.624;2023-06-19T02:54:16;22.90;1.00
3876;DHT22;1953;51.222;6.624;2023-06-19T02:59:00;22.90;1.00
3876;DHT22;1953;51.222;6.624;2023-06-19T03:03:43;22.90;1.00
3876;DHT22;1953;51.222;6.624;2023-06-19T03:08:27;22.90;1.00
3876;DHT22;1953;51.222;6.624;2023-06-19T03:13:10;22.80;1.00
3876;DHT22;1953;51.222;6.624;2023-06-19T03:17:54;22.80;1.00
3876;DHT22;1953;51.222;6.624;2023-06-19T03:22:36;22.80;1.00
3876;DHT22;1953;51.222;6.624;2023-06-19T03:27:19;22.60;1.00
3876;DHT22;1953;51.222;6.624;2023-06-19T03:32:01;22.50;1.00
3876;DHT22;1953;51.222;6.624;2023-06-19T03:36:45;22.50;1.00
3876;DHT22;1953;51.222;6.624;2023-06-19T03:41:27;22.40;1.00
3876;DHT22;1953;51.222;6.624;2023-06-19T03:46:10;22.30;1.00
3876;DHT22;1953;51.222;6.624;2023-06-19T03:50:52;22.20;1.00
3876;DHT22;1953;51.222;6.624;2023-06-19T03:55:37;22.10;1.00
3876;DHT22;1953;51.222;6.624;2023-06-19T04:00:20;22.00;1.00
3876;DHT22;1953;51.222;6.624;2023-06-19T04:05:04;22.00;1.00
3876;DHT22;1953;51.222;6.624;2023-06-19T04:09:46;22.00;1.00
3876;DHT22;1953;51.222;6.624;2023-06-19T04:14:30;22.00;1.00
3876;DHT22;1953;51.222;6.624;2023-06-19T04:19:13;22.00;1.00
3876;DHT22;1953;51.222;6.624;2023-06-19T04:23:55;22.00;1.00
3876;DHT22;1953;51.222;6.624;2023-06-19T04:28:38;22.00;1.00
3876;DHT22;1953;51.222;6.624;2023-06-19T04:33:22;21.90;1.00
3876;DHT22;1953;51.222;6.624;2023-06-19T04:38:06;21.90;1.00
3876;DHT22;1953;51.222;6.624;2023-06-19T04:42:48;21.80;1.00
3876;DHT22;1953;51.222;6.624;2023-06-19T04:47:31;21.80;1.00
3876;DHT22;1953;51.222;6.624;2023-06-19T04:52:15;21.70;1.00
3876;DHT22;1953;51.222;6.624;2023-06-19T04:56:59;21.80;1.00
3876;DHT22;1953;51.222;6.624;2023-06-19T05:01:42;21.90;1.00
3876;DHT22;1953;51.222;6.624;2023-06-19T05:06:25;22.00;1.00
3876;DHT22;1953;51.222;6.624;2023-06-19T05:11:09;22.10;1.00
3876;DHT22;1953;51.222;6.624;2023-06-19T05:15:52;22.00;1.00
3876;DHT22;1953;51.222;6.624;2023-06-19T05:20:34;22.10;1.00
3876;DHT22;1953;51.222;6.624;2023-06-19T05:25:17;22.20;1.00
3876;DHT22;1953;51.222;6.624;2023-06-19T05:30:00;22.20;1.00
3876;DHT22;1953;51.222;6.624;2023-06-19T05:34:43;22.30;1.00
3876;DHT22;1953;51.222;6.624;2023-06-19T05:39:26;22.30;1.00
3876;DHT22;1953;51.222;6.624;2023-06-19T05:44:08;22.30;1.00
3876;DHT22;1953;51.222;6.624;2023-06-19T05:48:52;22.50;1.00
3876;DHT22;1953;51.222;6.624;2023-06-19T05:53:35;22.60;1.00
3876;DHT22;1953;51.222;6.624;2023-06-19T05:58:20;22.50;1.00
3876;DHT22;1953;51.222;6.624;2023-06-19T06:03:02;22.60;1.00
3876;DHT22;1953;51.222;6.624;2023-06-19T06:07:46;22.70;1.00
3876;DHT22;1953;51.222;6.624;2023-06-19T06:12:29;22.80;1.00
3876;DHT22;1953;51.222;6.624;2023-06-19T06:17:11;22.90;1.00
3876;DHT22;1953;51.222;6.624;2023-06-19T06:21:54;22.90;1.00
3876;DHT22;1953;51.222;6.624;2023-06-19T06:26:38;22.90;1.00
3876;DHT22;1953;51.222;6.624;2023-06-19T06:31:21;23.00;1.00
3876;DHT22;1953;51.222;6.624;2023-06-19T06:36:04;23.10;1.00
3876;DHT22;1953;51.222;6.624;2023-06-19T06:40:47;23.10;1.00
3876;DHT22;1953;51.222;6.624;2023-06-19T06:45:30;22.90;1.00
3876;DHT22;1953;51.222;6.624;2023-06-19T06:50:13;23.00;1.00
3876;DHT22;1953;51.222;6.624;2023-06-19T06:54:55;23.00;1.00
3876;DHT22;1953;51.222;6.624;2023-06-19T06:59:38;23.10;1.00
3876;DHT22;1953;51.222;6.624;2023-06-19T07:04:22;23.20;1.00
3876;DHT22;1953;51.222;6.624;2023-06-19T07:09:05;23.30;1.00
3876;DHT22;1953;51.222;6.624;2023-06-19T07:13:48;23.20;1.00
3876;DHT22;1953;51.222;6.624;2023-06-19T07:18:30;23.00;1.00
3876;DHT22;1953;51.222;6.624;2023-06-19T07:23:16;22.60;1.00
3876;DHT22;1953;51.222;6.624;2023-06-19T07:27:58;22.40;1.00
3876;DHT22;1953;51.222;6.624;2023-06-19T07:32:41;22.40;1.00
3876;DHT22;1953;51.222;6.624;2023-06-19T07:37:23;22.40;1.00
3876;DHT22;1953;51.222;6.624;2023-06-19T07:42:07;22.70;1.00
3876;DHT22;1953;51.222;6.624;2023-06-19T07:46:51;22.80;1.00
3876;DHT22;1953;51.222;6.624;2023-06-19T07:51:34;22.60;1.00
3876;DHT22;1953;51.222;6.624;2023-06-19T07:56:16;22.80;1.00
3876;DHT22;1953;51.222;6.624;2023-06-19T08:01:01;22.90;1.00
3876;DHT22;1953;51.222;6.624;2023-06-19T08:05:43;22.90;1.00
3876;DHT22;1953;51.222;6.624;2023-06-19T08:10:26;22.90;1.00
3876;DHT22;1953;51.222;6.624;2023-06-19T08:15:09;23.30;1.00
3876;DHT22;1953;51.222;6.624;2023-06-19T08:19:53;23.40;1.00
3876;DHT22;1953;51.222;6.624;2023-06-19T08:24:36;23.60;1.00
3876;DHT22;1953;51.222;6.624;2023-06-19T08:29:20;23.50;1.00
3876;DHT22;1953;51.222;6.624;2023-06-19T08:34:03;23.70;1.00
3876;DHT22;1953;51.222;6.624;2023-06-19T08:38:50;23.70;1.00
3876;DHT22;1953;51.222;6.624;2023-06-19T08:43:34;23.90;1.00
3876;DHT22;1953;51.222;6.624;2023-06-19T08:48:16;24.00;1.00
3876;DHT22;1953;51.222;6.624;2023-06-19T08:52:59;24.00;1.00
3876;DHT22;1953;51.222;6.624;2023-06-19T08:57:43;24.10;1.00
3876;DHT22;1953;51.222;6.624;2023-06-19T09:02:36;24.30;1.00
3876;DHT22;1953;51.222;6.624;2023-06-19T09:07:19;24.50;1.00
3876;DHT22;1953;51.222;6.624;2023-06-19T09:12:04;24.70;1.00
3876;DHT22;1953;51.222;6.624;2023-06-19T09:16:48;24.90;1.00
3876;DHT22;1953;51.222;6.624;2023-06-19T09:21:30;25.00;1.00
3876;DHT22;1953;51.222;6.624;2023-06-19T09:26:14;25.10;1.00
3876;DHT22;1953;51.222;6.624;2023-06-19T09:31:00;25.00;1.00
3876;DHT22;1953;51.222;6.624;2023-06-19T09:35:44;25.10;1.00
3876;DHT22;1953;51.222;6.624;2023-06-19T09:40:26;25.20;1.00
3876;DHT22;1953;51.222;6.624;2023-06-19T09:45:11;25.40;1.00
3876;DHT22;1953;51.222;6.624;2023-06-19T09:49:56;25.40;1.00
3876;DHT22;1953;51.222;6.624;2023-06-19T09:54:41;25.20;1.00
3876;DHT22;1953;51.222;6.624;2023-06-19T09:59:25;25.30;1.00
3876;DHT22;1953;51.222;6.624;2023-06-19T10:04:08;25.40;1.00
3876;DHT22;1953;51.222;6.624;2023-06-19T10:08:52;25.40;1.00
3876;DHT22;1953;51.222;6.624;2023-06-19T10:13:40;25.50;1.00
3876;DHT22;1953;51.222;6.624;2023-06-19T10:18:23;25.50;1.00
3876;DHT22;1953;51.222;6.624;2023-06-19T10:23:07;25.50;1.00
3876;DHT22;1953;51.222;6.624;2023-06-19T10:27:50;25.50;1.00
3876;DHT22;1953;51.222;6.624;2023-06-19T10:32:36;25.70;1.00
3876;DHT22;1953;51.222;6.624;2023-06-19T10:37:31;25.90;1.00
3876;DHT22;1953;51.222;6.624;2023-06-19T10:42:14;26.00;1.00
3876;DHT22;1953;51.222;6.624;2023-06-19T10:46:57;27.20;1.00
3876;DHT22;1953;51.222;6.624;2023-06-19T10:51:41;26.30;1.00
3876;DHT22;1953;51.222;6.624;2023-06-19T10:56:25;26.60;1.00
3876;DHT22;1953;51.222;6.624;2023-06-19T11:01:07;26.80;1.00
3876;DHT22;1953;51.222;6.624;2023-06-19T11:05:50;26.80;1.00
3876;DHT22;1953;51.222;6.624;2023-06-19T11:10:34;27.00;1.00
3876;DHT22;1953;51.222;6.624;2023-06-19T11:15:17;27.30;1.00
3876;DHT22;1953;51.222;6.624;2023-06-19T11:19:59;27.40;1.00
3876;DHT22;1953;51.222;6.624;2023-06-19T11:24:45;27.50;1.00
3876;DHT22;1953;51.222;6.624;2023-06-19T11:29:30;27.60;1.00
3876;DHT22;1953;51.222;6.624;2023-06-19T11:34:14;27.70;1.00
3876;DHT22;1953;51.222;6.624;2023-06-19T11:38:56;27.80;1.00
3876;DHT22;1953;51.222;6.624;2023-06-19T11:43:39;27.80;1.00
3876;DHT22;1953;51.222;6.624;2023-06-19T11:48:24;28.10;1.00
3876;DHT22;1953;51.222;6.624;2023-06-19T11:53:06;28.40;1.00
3876;DHT22;1953;51.222;6.624;2023-06-19T11:57:49;28.70;1.00
3876;DHT22;1953;51.222;6.624;2023-06-19T12:02:31;28.70;1.00
3876;DHT22;1953;51.222;6.624;2023-06-19T12:07:15;28.70;1.00
3876;DHT22;1953;51.222;6.624;2023-06-19T12:14:33;29.10;1.00
3876;DHT22;1953;51.222;6.624;2023-06-19T12:19:16;29.60;1.00
3876;DHT22;1953;51.222;6.624;2023-06-19T12:23:59;29.80;1.00
3876;DHT22;1953;51.222;6.624;2023-06-19T12:28:41;30.10;1.00
3876;DHT22;1953;51.222;6.624;2023-06-19T12:33:25;30.30;1.00
3876;DHT22;1953;51.222;6.624;2023-06-19T12:38:12;30.70;1.00
3876;DHT22;1953;51.222;6.624;2023-06-19T12:42:55;30.10;1.00
3876;DHT22;1953;51.222;6.624;2023-06-19T12:47:37;30.20;1.00
3876;DHT22;1953;51.222;6.624;2023-06-19T12:52:21;30.60;1.00
3876;DHT22;1953;51.222;6.624;2023-06-19T12:57:04;31.40;1.00
3876;DHT22;1953;51.222;6.624;2023-06-19T13:01:47;32.00;1.00
3876;DHT22;1953;51.222;6.624;2023-06-19T13:06:29;32.40;1.00
3876;DHT22;1953;51.222;6.624;2023-06-19T13:11:13;33.10;1.00
3876;DHT22;1953;51.222;6.624;2023-06-19T13:15:56;33.60;1.00
3876;DHT22;1953;51.222;6.624;2023-06-19T13:20:38;34.30;1.00
3876;DHT22;1953;51.222;6.624;2023-06-19T13:25:21;34.70;1.00
3876;DHT22;1953;51.222;6.624;2023-06-19T13:30:07;35.30;1.00
3876;DHT22;1953;51.222;6.624;2023-06-19T13:34:49;36.00;1.00
3876;DHT22;1953;51.222;6.624;2023-06-19T13:39:32;36.40;1.00
3876;DHT22;1953;51.222;6.624;2023-06-19T13:44:01;36.60;1.00
3876;DHT22;1953;51.222;6.624;2023-06-19T13:48:44;37.30;1.00
3876;DHT22;1953;51.222;6.624;2023-06-19T13:53:31;37.40;1.00
3876;DHT22;1953;51.222;6.624;2023-06-19T13:58:14;37.30;1.00
3876;DHT22;1953;51.222;6.624;2023-06-19T14:02:56;37.30;1.00
3876;DHT22;1953;51.222;6.624;2023-06-19T14:07:41;37.60;1.00
3876;DHT22;1953;51.222;6.624;2023-06-19T14:12:23;37.20;1.00
3876;DHT22;1953;51.222;6.624;2023-06-19T14:17:06;37.40;1.00
3876;DHT22;1953;51.222;6.624;2023-06-19T14:21:49;38.00;1.00
3876;DHT22;1953;51.222;6.624;2023-06-19T14:26:32;38.30;1.00
3876;DHT22;1953;51.222;6.624;2023-06-19T14:31:15;38.20;1.00
3876;DHT22;1953;51.222;6.624;2023-06-19T14:35:58;38.20;1.00
3876;DHT22;1953;51.222;6.624;2023-06-19T14:40:41;38.40;1.00
3876;DHT22;1953;51.222;6.624;2023-06-19T14:45:25;38.20;1.00
3876;DHT22;1953;51.222;6.624;2023-06-19T14:50:08;38.40;1.00
3876;DHT22;1953;51.222;6.624;2023-06-19T14:54:50;38.60;1.00
3876;DHT22;1953;51.222;6.624;2023-06-19T14:59:33;38.60;1.00
3876;DHT22;1953;51.222;6.624;2023-06-19T15:04:17;38.70;1.00
3876;DHT22;1953;51.222;6.624;2023-06-19T15:08:59;38.90;1.00
3876;DHT22;1953;51.222;6.624;2023-06-19T15:13:42;39.00;1.00
3876;DHT22;1953;51.222;6.624;2023-06-19T15:18:25;38.90;1.00
3876;DHT22;1953;51.222;6.624;2023-06-19T15:23:09;39.00;1.00
3876;DHT22;1953;51.222;6.624;2023-06-19T15:27:51;39.10;1.00
3876;DHT22;1953;51.222;6.624;2023-06-19T15:32:34;39.00;1.00
3876;DHT22;1953;51.222;6.624;2023-06-19T15:37:16;39.00;1.00
3876;DHT22;1953;51.222;6.624;2023-06-19T15:42:00;38.80;1.00
3876;DHT22;1953;51.222;6.624;2023-06-19T15:46:44;38.80;1.00
3876;DHT22;1953;51.222;6.624;2023-06-19T15:51:26;37.90;1.00
3876;DHT22;1953;51.222;6.624;2023-06-19T15:56:09;37.90;1.00
3876;DHT22;1953;51.222;6.624;2023-06-19T16:00:53;38.30;1.00
3876;DHT22;1953;51.222;6.624;2023-06-19T16:05:35;38.50;1.00
3876;DHT22;1953;51.222;6.624;2023-06-19T16:10:18;38.60;1.00
3876;DHT22;1953;51.222;6.624;2023-06-19T16:15:01;38.50;1.00
3876;DHT22;1953;51.222;6.624;2023-06-19T16:19:45;38.70;1.00
3876;DHT22;1953;51.222;6.624;2023-06-19T16:24:27;38.80;1.00
3876;DHT22;1953;51.222;6.624;2023-06-19T16:29:10;38.70;1.00
3876;DHT22;1953;51.222;6.624;2023-06-19T16:33:53;38.40;1.00
3876;DHT22;1953;51.222;6.624;2023-06-19T16:38:37;38.70;1.00
3876;DHT22;1953;51.222;6.624;2023-06-19T16:43:20;38.50;1.00
3876;DHT22;1953;51.222;6.624;2023-06-19T16:48:02;38.50;1.00
3876;DHT22;1953;51.222;6.624;2023-06-19T16:52:45;38.30;1.00
3876;DHT22;1953;51.222;6.624;2023-06-19T16:57:30;38.40;1.00
3876;DHT22;1953;51.222;6.624;2023-06-19T17:02:14;38.20;1.00
3876;DHT22;1953;51.222;6.624;2023-06-19T17:06:56;38.40;1.00
3876;DHT22;1953;51.222;6.624;2023-06-19T17:11:40;38.40;1.00
3876;DHT22;1953;51.222;6.624;2023-06-19T17:16:24;38.30;1.00
3876;DHT22;1953;51.222;6.624;2023-06-19T17:21:06;38.20;1.00
3876;DHT22;1953;51.222;6.624;2023-06-19T17:25:49;37.90;1.00
3876;DHT22;1953;51.222;6.624;2023-06-19T17:30:31;37.80;1.00
3876;DHT22;1953;51.222;6.624;2023-06-19T17:35:16;37.80;1.00
3876;DHT22;1953;51.222;6.624;2023-06-19T17:39:58;37.20;1.00
3876;DHT22;1953;51.222;6.624;2023-06-19T17:44:41;36.60;1.00
3876;DHT22;1953;51.222;6.624;2023-06-19T17:49:24;36.00;1.00
3876;DHT22;1953;51.222;6.624;2023-06-19T17:54:08;34.90;1.00
3876;DHT22;1953;51.222;6.624;2023-06-19T17:58:50;35.10;1.00
3876;DHT22;1953;51.222;6.624;2023-06-19T18:03:33;34.60;1.00
3876;DHT22;1953;51.222;6.624;2023-06-19T18:08:15;34.00;1.00
3876;DHT22;1953;51.222;6.624;2023-06-19T18:12:59;33.40;1.00
3876;DHT22;1953;51.222;6.624;2023-06-19T18:17:42;33.10;1.00
3876;DHT22;1953;51.222;6.624;2023-06-19T18:22:25;32.60;1.00
3876;DHT22;1953;51.222;6.624;2023-06-19T18:27:07;32.40;1.00
3876;DHT22;1953;51.222;6.624;2023-06-19T18:31:51;32.30;1.00
3876;DHT22;1953;51.222;6.624;2023-06-19T18:36:34;32.00;1.00
3876;DHT22;1953;51.222;6.624;2023-06-19T18:41:16;31.80;1.00
3876;DHT22;1953;51.222;6.624;2023-06-19T18:45:59;31.80;1.00
3876;DHT22;1953;51.222;6.624;2023-06-19T18:50:43;31.70;1.00
3876;DHT22;1953;51.222;6.624;2023-06-19T18:55:25;31.60;1.00
3876;DHT22;1953;51.222;6.624;2023-06-19T19:00:08;31.50;1.00
3876;DHT22;1953;51.222;6.624;2023-06-19T19:04:51;31.30;1.00
3876;DHT22;1953;51.222;6.624;2023-06-19T19:09:36;31.00;1.00
3876;DHT22;1953;51.222;6.624;2023-06-19T19:14:19;30.90;1.00
3876;DHT22;1953;51.222;6.624;2023-06-19T19:19:01;30.70;1.00
3876;DHT22;1953;51.222;6.624;2023-06-19T19:23:44;30.50;1.00
3876;DHT22;1953;51.222;6.624;2023-06-19T19:28:28;30.40;1.00
3876;DHT22;1953;51.222;6.624;2023-06-19T19:33:10;30.30;1.00
3876;DHT22;1953;51.222;6.624;2023-06-19T19:37:53;30.20;1.00
3876;DHT22;1953;51.222;6.624;2023-06-19T19:42:36;30.00;1.00
3876;DHT22;1953;51.222;6.624;2023-06-19T19:47:20;29.90;1.00
3876;DHT22;1953;51.222;6.624;2023-06-19T19:52:03;29.70;1.00
3876;DHT22;1953;51.222;6.624;2023-06-19T19:56:46;29.40;1.00
3876;DHT22;1953;51.222;6.624;2023-06-19T20:01:28;29.10;1.00
3876;DHT22;1953;51.222;6.624;2023-06-19T20:06:12;29.00;1.00
3876;DHT22;1953;51.222;6.624;2023-06-19T20:10:55;30.10;1.00
3876;DHT22;1953;51.222;6.624;2023-06-19T20:15:37;28.70;1.00
3876;DHT22;1953;51.222;6.624;2023-06-19T20:20:20;28.60;1.00
3876;DHT22;1953;51.222;6.624;2023-06-19T20:25:05;28.50;1.00
3876;DHT22;1953;51.222;6.624;2023-06-19T20:29:47;28.40;1.00
3876;DHT22;1953;51.222;6.624;2023-06-19T20:34:30;28.30;1.00
3876;DHT22;1953;51.222;6.624;2023-06-19T20:39:12;28.20;1.00
3876;DHT22;1953;51.222;6.624;2023-06-19T20:43:57;28.00;1.00
3876;DHT22;1953;51.222;6.624;2023-06-19T20:48:41;28.00;1.00
3876;DHT22;1953;51.222;6.624;2023-06-19T20:53:24;27.90;1.00
3876;DHT22;1953;51.222;6.624;2023-06-19T20:58:07;27.80;1.00
3876;DHT22;1953;51.222;6.624;2023-06-19T21:02:52;27.80;1.00
3876;DHT22;1953;51.222;6.624;2023-06-19T21:07:35;27.80;1.00
3876;DHT22;1953;51.222;6.624;2023-06-19T21:12:17;27.70;1.00
3876;DHT22;1953;51.222;6.624;2023-06-19T21:17:00;27.70;1.00
3876;DHT22;1953;51.222;6.624;2023-06-19T21:21:44;27.60;1.00
3876;DHT22;1953;51.222;6.624;2023-06-19T21:26:26;27.50;1.00
3876;DHT22;1953;51.222;6.624;2023-06-19T21:31:09;27.40;1.00
3876;DHT22;1953;51.222;6.624;2023-06-19T21:35:54;27.30;1.00
3876;DHT22;1953;51.222;6.624;2023-06-19T21:40:37;27.20;1.00
3876;DHT22;1953;51.222;6.624;2023-06-19T21:45:20;27.20;1.00
3876;DHT22;1953;51.222;6.624;2023-06-19T21:50:03;27.20;1.00
3876;DHT22;1953;51.222;6.624;2023-06-19T21:54:46;27.10;1.00
3876;DHT22;1953;51.222;6.624;2023-06-19T21:59:30;27.00;1.00
3876;DHT22;1953;51.222;6.624;2023-06-19T22:04:12;27.00;1.00
3876;DHT22;1953;51.222;6.624;2023-06-19T22:08:55;26.80;1.00
3876;DHT22;1953;51.222;6.624;2023-06-19T22:13:41;26.70;1.00
3876;DHT22;1953;51.222;6.624;2023-06-19T22:18:25;26.60;1.00
3876;DHT22;1953;51.222;6.624;2023-06-19T22:23:07;26.60;1.00
3876;DHT22;1953;51.222;6.624;2023-06-19T22:27:50;26.50;1.00
3876;DHT22;1953;51.222;6.624;2023-06-19T22:32:35;26.50;1.00
3876;DHT22;1953;51.222;6.624;2023-06-19T22:37:19;26.50;1.00
3876;DHT22;1953;51.222;6.624;2023-06-19T22:42:01;26.40;1.00
3876;DHT22;1953;51.222;6.624;2023-06-19T22:46:44;26.30;1.00
3876;DHT22;1953;51.222;6.624;2023-06-19T22:51:27;26.30;1.00
3876;DHT22;1953;51.222;6.624;2023-06-19T22:56:10;26.20;1.00
3876;DHT22;1953;51.222;6.624;2023-06-19T23:00:53;26.20;1.00
3876;DHT22;1953;51.222;6.624;2023-06-19T23:05:37;26.10;1.00
3876;DHT22;1953;51.222;6.624;2023-06-19T23:10:20;26.10;1.00
3876;DHT22;1953;51.222;6.624;2023-06-19T23:15:04;26.10;1.00
3876;DHT22;1953;51.222;6.624;2023-06-19T23:19:48;26.00;1.00
3876;DHT22;1953;51.222;6.624;2023-06-19T23:24:30;25.90;1.00
3876;DHT22;1953;51.222;6.624;2023-06-19T23:29:13;25.60;1.00
3876;DHT22;1953;51.222;6.624;2023-06-19T23:33:57;25.50;1.00
3876;DHT22;1953;51.222;6.624;2023-06-19T23:38:41;25.50;1.00
3876;DHT22;1953;51.222;6.624;2023-06-19T23:43:23;25.40;1.00
3876;DHT22;1953;51.222;6.624;2023-06-19T23:48:06;25.40;1.00
3876;DHT22;1953;51.222;6.624;2023-06-19T23:52:50;25.30;1.00
3876;DHT22;1953;51.222;6.624;2023-06-19T23:57:32;25.30;1.00
